Time,TemperatureF,DewpointF,PressureIn,WindDirection,WindDirectionDegrees,WindSpeedMPH,WindSpeedGustMPH,Humidity,HourlyPrecipIn,Conditions,Clouds,dailyrainin,SolarRadiationWatts/m^2,SoftwareType,DateUTC
2013-06-15 00:24:00,51.0,21.0,-100.00,East,88,4.0,6.0,30,0.00,,,0.00,0.000000,,2013-06-15 06:24:00,
2013-06-15 00:33:00,51.0,21.0,-100.00,East,88,4.0,6.0,30,0.00,,,0.00,0.000000,,2013-06-15 06:33:00,
2013-06-15 00:43:00,51.0,21.0,-100.00,East,88,4.0,6.0,30,0.00,,,0.00,0.000000,,2013-06-15 06:43:00,
2013-06-15 00:53:00,51.0,21.0,-100.00,East,88,4.0,6.0,30,0.00,,,0.00,0.000000,,2013-06-15 06:53:00,
2013-06-15 01:23:00,47.0,22.0,-100.00,East,93,3.0,6.0,37,0.00,,,0.00,0.000000,,2013-06-15 07:23:00,
2013-06-15 01:33:00,47.0,22.0,-100.00,East,93,3.0,6.0,37,0.00,,,0.00,0.000000,,2013-06-15 07:33:00,
2013-06-15 01:43:00,47.0,22.0,-100.00,East,93,3.0,6.0,37,0.00,,,0.00,0.000000,,2013-06-15 07:43:00,
2013-06-15 01:53:00,47.0,22.0,-100.00,East,93,3.0,6.0,37,0.00,,,0.00,0.000000,,2013-06-15 07:53:00,
2013-06-15 02:22:00,45.0,24.0,-100.00,East,80,6.0,9.0,43,0.00,,,0.00,0.000000,,2013-06-15 08:22:00,
2013-06-15 02:33:00,45.0,24.0,-100.00,East,80,6.0,9.0,43,0.00,,,0.00,0.000000,,2013-06-15 08:33:00,
2013-06-15 02:42:00,45.0,24.0,-100.00,East,80,6.0,9.0,43,0.00,,,0.00,0.000000,,2013-06-15 08:42:00,
2013-06-15 02:53:00,45.0,24.0,-100.00,East,80,6.0,9.0,43,0.00,,,0.00,0.000000,,2013-06-15 08:53:00,
2013-06-15 03:22:00,43.0,24.0,-100.00,ENE,72,7.0,10.0,47,0.00,,,0.00,0.000000,,2013-06-15 09:22:00,
2013-06-15 03:33:00,43.0,24.0,-100.00,ENE,72,7.0,10.0,47,0.00,,,0.00,0.000000,,2013-06-15 09:33:00,
2013-06-15 03:43:00,43.0,24.0,-100.00,ENE,72,7.0,10.0,47,0.00,,,0.00,0.000000,,2013-06-15 09:43:00,
2013-06-15 03:52:00,43.0,24.0,-100.00,ENE,72,7.0,10.0,47,0.00,,,0.00,0.000000,,2013-06-15 09:52:00,
2013-06-15 04:23:00,42.0,23.0,-100.00,ESE,102,5.0,8.0,47,0.00,,,0.00,0.000000,,2013-06-15 10:23:00,
2013-06-15 04:33:00,42.0,23.0,-100.00,ESE,102,5.0,8.0,47,0.00,,,0.00,0.000000,,2013-06-15 10:33:00,
2013-06-15 04:44:00,42.0,23.0,-100.00,ESE,102,5.0,8.0,47,0.00,,,0.00,0.000000,,2013-06-15 10:44:00,
2013-06-15 04:53:00,42.0,23.0,-100.00,ESE,102,5.0,8.0,47,0.00,,,0.00,0.000000,,2013-06-15 10:53:00,
2013-06-15 05:22:00,42.0,23.0,-100.00,East,84,5.0,7.0,46,0.00,,,0.00,0.000000,,2013-06-15 11:22:00,
2013-06-15 05:33:00,42.0,23.0,-100.00,East,84,5.0,7.0,46,0.00,,,0.00,0.000000,,2013-06-15 11:33:00,
2013-06-15 05:43:00,42.0,23.0,-100.00,East,84,5.0,7.0,46,0.00,,,0.00,0.000000,,2013-06-15 11:43:00,
2013-06-15 05:53:00,42.0,23.0,-100.00,East,84,5.0,7.0,46,0.00,,,0.00,0.000000,,2013-06-15 11:53:00,
2013-06-15 06:22:00,39.0,25.0,-100.00,East,89,5.0,7.0,56,0.00,,,0.00,3.000000,,2013-06-15 12:22:00,
2013-06-15 06:33:00,39.0,25.0,-100.00,East,89,5.0,7.0,56,0.00,,,0.00,3.000000,,2013-06-15 12:33:00,
2013-06-15 06:43:00,39.0,25.0,-100.00,East,89,5.0,7.0,56,0.00,,,0.00,3.000000,,2013-06-15 12:43:00,
2013-06-15 06:52:00,39.0,25.0,-100.00,East,89,5.0,7.0,56,0.00,,,0.00,3.000000,,2013-06-15 12:52:00,
2013-06-15 07:22:00,44.0,28.0,-100.00,ENE,75,9.0,12.0,52,0.00,,,0.00,81.000000,,2013-06-15 13:22:00,
2013-06-15 07:32:00,44.0,28.0,-100.00,ENE,75,9.0,12.0,52,0.00,,,0.00,81.000000,,2013-06-15 13:32:00,
2013-06-15 07:43:00,44.0,28.0,-100.00,ENE,75,9.0,12.0,52,0.00,,,0.00,81.000000,,2013-06-15 13:43:00,
2013-06-15 07:53:00,44.0,28.0,-100.00,ENE,75,9.0,12.0,52,0.00,,,0.00,81.000000,,2013-06-15 13:53:00,
2013-06-15 08:22:00,53.0,27.0,-100.00,ENE,78,3.0,11.0,37,0.00,,,0.00,265.000000,,2013-06-15 14:22:00,
2013-06-15 08:34:00,53.0,27.0,-100.00,ENE,78,3.0,11.0,37,0.00,,,0.00,265.000000,,2013-06-15 14:34:00,
2013-06-15 08:43:00,53.0,27.0,-100.00,ENE,78,3.0,11.0,37,0.00,,,0.00,265.000000,,2013-06-15 14:43:00,
2013-06-15 08:53:00,53.0,27.0,-100.00,ENE,78,3.0,11.0,37,0.00,,,0.00,265.000000,,2013-06-15 14:53:00,
2013-06-15 09:22:00,52.0,30.0,-100.00,WSW,258,6.0,8.0,42,0.00,,,0.00,461.000000,,2013-06-15 15:22:00,
2013-06-15 09:33:00,52.0,30.0,-100.00,WSW,258,6.0,8.0,42,0.00,,,0.00,461.000000,,2013-06-15 15:33:00,
2013-06-15 09:43:00,52.0,30.0,-100.00,WSW,258,6.0,8.0,42,0.00,,,0.00,461.000000,,2013-06-15 15:43:00,
2013-06-15 09:53:00,52.0,30.0,-100.00,WSW,258,6.0,8.0,42,0.00,,,0.00,461.000000,,2013-06-15 15:53:00,
2013-06-15 10:22:00,57.0,32.0,-100.00,West,265,6.0,10.0,38,0.00,,,0.00,649.000000,,2013-06-15 16:22:00,
2013-06-15 10:33:00,57.0,32.0,-100.00,West,265,6.0,10.0,38,0.00,,,0.00,649.000000,,2013-06-15 16:33:00,
2013-06-15 10:43:00,57.0,32.0,-100.00,West,265,6.0,10.0,38,0.00,,,0.00,649.000000,,2013-06-15 16:43:00,
2013-06-15 10:53:00,57.0,32.0,-100.00,West,265,6.0,10.0,38,0.00,,,0.00,649.000000,,2013-06-15 16:53:00,
2013-06-15 11:21:00,64.0,33.0,-100.00,WSW,258,8.0,17.0,31,0.00,,,0.00,813.000000,,2013-06-15 17:21:00,
2013-06-15 11:32:00,64.0,33.0,-100.00,WSW,258,8.0,17.0,31,0.00,,,0.00,813.000000,,2013-06-15 17:32:00,
2013-06-15 11:43:00,64.0,33.0,-100.00,WSW,258,8.0,17.0,31,0.00,,,0.00,813.000000,,2013-06-15 17:43:00,
2013-06-15 11:52:00,64.0,33.0,-100.00,WSW,258,8.0,17.0,31,0.00,,,0.00,813.000000,,2013-06-15 17:52:00,
2013-06-15 12:22:00,67.0,25.0,-100.00,West,265,12.0,21.0,20,0.00,,,0.00,960.000000,,2013-06-15 18:22:00,
2013-06-15 12:32:00,67.0,25.0,-100.00,West,265,12.0,21.0,20,0.00,,,0.00,960.000000,,2013-06-15 18:32:00,
2013-06-15 12:43:00,67.0,25.0,-100.00,West,265,12.0,21.0,20,0.00,,,0.00,960.000000,,2013-06-15 18:43:00,
2013-06-15 12:53:00,67.0,25.0,-100.00,West,265,12.0,21.0,20,0.00,,,0.00,960.000000,,2013-06-15 18:53:00,
2013-06-15 13:22:00,68.0,23.0,-100.00,West,262,18.0,31.0,18,0.00,,,0.00,1017.000000,,2013-06-15 19:22:00,
2013-06-15 13:33:00,68.0,23.0,-100.00,West,262,18.0,31.0,18,0.00,,,0.00,1017.000000,,2013-06-15 19:33:00,
2013-06-15 13:43:00,68.0,23.0,-100.00,West,262,18.0,31.0,18,0.00,,,0.00,1017.000000,,2013-06-15 19:43:00,
2013-06-15 13:52:00,68.0,23.0,-100.00,West,262,18.0,31.0,18,0.00,,,0.00,1017.000000,,2013-06-15 19:52:00,
2013-06-15 14:22:00,70.0,25.0,-100.00,West,261,15.0,30.0,18,0.00,,,0.00,1009.000000,,2013-06-15 20:22:00,
2013-06-15 14:33:00,70.0,25.0,-100.00,West,261,15.0,30.0,18,0.00,,,0.00,1009.000000,,2013-06-15 20:33:00,
2013-06-15 14:43:00,70.0,25.0,-100.00,West,261,15.0,30.0,18,0.00,,,0.00,1009.000000,,2013-06-15 20:43:00,
2013-06-15 14:52:00,70.0,25.0,-100.00,West,261,15.0,30.0,18,0.00,,,0.00,1009.000000,,2013-06-15 20:52:00,
2013-06-15 15:22:00,64.0,25.0,-100.00,West,272,15.0,27.0,23,0.00,,,0.00,615.000000,,2013-06-15 21:22:00,
2013-06-15 15:33:00,64.0,25.0,-100.00,West,272,15.0,27.0,23,0.00,,,0.00,615.000000,,2013-06-15 21:33:00,
2013-06-15 15:42:00,64.0,25.0,-100.00,West,272,15.0,27.0,23,0.00,,,0.00,615.000000,,2013-06-15 21:42:00,
2013-06-15 15:52:00,64.0,25.0,-100.00,West,272,15.0,27.0,23,0.00,,,0.00,615.000000,,2013-06-15 21:52:00,
2013-06-15 16:22:00,69.0,25.0,-100.00,West,259,12.0,22.0,19,0.00,,,0.00,717.000000,,2013-06-15 22:22:00,
2013-06-15 16:32:00,69.0,25.0,-100.00,West,259,12.0,22.0,19,0.00,,,0.00,717.000000,,2013-06-15 22:32:00,
2013-06-15 16:42:00,69.0,25.0,-100.00,West,259,12.0,22.0,19,0.00,,,0.00,717.000000,,2013-06-15 22:42:00,
2013-06-15 16:53:00,69.0,25.0,-100.00,West,259,12.0,22.0,19,0.00,,,0.00,717.000000,,2013-06-15 22:53:00,
2013-06-15 17:22:00,69.0,24.0,-100.00,West,261,15.0,24.0,18,0.00,,,0.00,712.000000,,2013-06-15 23:22:00,
2013-06-15 17:33:00,69.0,24.0,-100.00,West,261,15.0,24.0,18,0.00,,,0.00,712.000000,,2013-06-15 23:33:00,
2013-06-15 17:42:00,69.0,24.0,-100.00,West,261,15.0,24.0,18,0.00,,,0.00,712.000000,,2013-06-15 23:42:00,
2013-06-15 17:53:00,69.0,24.0,-100.00,West,261,15.0,24.0,18,0.00,,,0.00,712.000000,,2013-06-15 23:53:00,
2013-06-15 18:22:00,68.0,27.0,-100.00,West,269,12.0,25.0,21,0.00,,,0.00,372.000000,,2013-06-16 00:22:00,
2013-06-15 18:33:00,68.0,27.0,-100.00,West,269,12.0,25.0,21,0.00,,,0.00,372.000000,,2013-06-16 00:33:00,
2013-06-15 18:43:00,68.0,27.0,-100.00,West,269,12.0,25.0,21,0.00,,,0.00,372.000000,,2013-06-16 00:43:00,
2013-06-15 18:52:00,68.0,27.0,-100.00,West,269,12.0,25.0,21,0.00,,,0.00,372.000000,,2013-06-16 00:52:00,
2013-06-15 19:22:00,67.0,26.0,-100.00,West,265,8.0,20.0,21,0.00,,,0.00,345.000000,,2013-06-16 01:22:00,
2013-06-15 19:33:00,67.0,26.0,-100.00,West,265,8.0,20.0,21,0.00,,,0.00,345.000000,,2013-06-16 01:33:00,
2013-06-15 19:42:00,67.0,26.0,-100.00,West,265,8.0,20.0,21,0.00,,,0.00,345.000000,,2013-06-16 01:42:00,
2013-06-15 19:53:00,67.0,26.0,-100.00,West,265,8.0,20.0,21,0.00,,,0.00,345.000000,,2013-06-16 01:53:00,
2013-06-15 20:22:00,65.0,22.0,-100.00,West,266,12.0,19.0,19,0.00,,,0.00,232.000000,,2013-06-16 02:22:00,
2013-06-15 20:33:00,65.0,22.0,-100.00,West,266,12.0,19.0,19,0.00,,,0.00,232.000000,,2013-06-16 02:33:00,
2013-06-15 20:43:00,65.0,22.0,-100.00,West,266,12.0,19.0,19,0.00,,,0.00,232.000000,,2013-06-16 02:43:00,
2013-06-15 20:53:00,65.0,22.0,-100.00,West,266,12.0,19.0,19,0.00,,,0.00,232.000000,,2013-06-16 02:53:00,
2013-06-15 21:22:00,60.0,24.0,-100.00,WNW,291,12.0,21.0,25,0.00,,,0.00,36.000000,,2013-06-16 03:22:00,
2013-06-15 21:33:00,60.0,24.0,-100.00,WNW,291,12.0,21.0,25,0.00,,,0.00,36.000000,,2013-06-16 03:33:00,
2013-06-15 21:43:00,60.0,24.0,-100.00,WNW,291,12.0,21.0,25,0.00,,,0.00,36.000000,,2013-06-16 03:43:00,
2013-06-15 21:53:00,60.0,24.0,-100.00,WNW,291,12.0,21.0,25,0.00,,,0.00,36.000000,,2013-06-16 03:53:00,
2013-06-15 22:23:00,57.0,25.0,-100.00,NNW,347,3.0,16.0,29,0.00,,,0.00,0.000000,,2013-06-16 04:23:00,
2013-06-15 22:33:00,57.0,25.0,-100.00,NNW,347,3.0,16.0,29,0.00,,,0.00,0.000000,,2013-06-16 04:33:00,
2013-06-15 22:42:00,57.0,25.0,-100.00,NNW,347,3.0,16.0,29,0.00,,,0.00,0.000000,,2013-06-16 04:42:00,
2013-06-15 22:53:00,57.0,25.0,-100.00,NNW,347,3.0,16.0,29,0.00,,,0.00,0.000000,,2013-06-16 04:53:00,
2013-06-15 23:22:00,55.0,25.0,-100.00,ENE,67,2.0,5.0,31,0.00,,,0.00,0.000000,,2013-06-16 05:22:00,
2013-06-15 23:34:00,55.0,25.0,-100.00,ENE,67,2.0,5.0,31,0.00,,,0.00,0.000000,,2013-06-16 05:34:00,
2013-06-15 23:43:00,55.0,25.0,-100.00,ENE,67,2.0,5.0,31,0.00,,,0.00,0.000000,,2013-06-16 05:43:00,
2013-06-15 23:52:00,55.0,25.0,-100.00,ENE,67,2.0,5.0,31,0.00,,,0.00,0.000000,,2013-06-16 05:52:00,